Duvernay, Canada
Current Conditions -  °F | °C
As of 7:00 PM on Wednesday 26 Nov 2014 (Local Time) from CYUL Reporting Station
Overcast Overcast  
Wind Chill: 23°   Ceiling: 9000
Heat Index: 32°   Visibility: 15mi
Dew Point: 21°   Wind: 13mph
Humidity: 64%   Direction: 30°NNE
Pressure: 30.12"   Gusts: NA
Location:  45.57°N, 73.85°W
Report Text: CYUL 270000Z 03011KT 15SM OVC090 M00/M06 A3012 RMK AC8 PRESFR SLP202
Loading
Personal Weather Stations






























Interactive Weather Map New forecast layout! Learn more

10-Day Weather Forecast

Advertisements
Track Severe Weather on mobile